Time;durP1;ratioP1;P1;durP2;ratioP2;P2;SDS_P1;SDS_P2;PMS_P1;PMS_P2;Temp;Humidity;BMP_temperature;BMP_pressure;BME280_temperature;BME280_humidity;BME280_pressure;Samples;Min_cycle;Max_cycle;Signal;HPM_P1;HPM_P2
2023/05/10 00:00:49;;;;;;;;;2.33;2.00;;;;;;;;6342914;22;46960;-76
2023/05/10 00:03:15;;;;;;;;;3.67;3.00;;;;;;;;6371597;22;45456;-75
2023/05/10 00:05:40;;;;;;;;;3.75;3.75;;;;;;;;6342524;22;45263;-75
2023/05/10 00:08:05;;;;;;;;;5.00;3.00;;;;;;;;6372278;22;45201;-75
2023/05/10 00:10:31;;;;;;;;;4.00;3.00;;;;;;;;6371698;22;45451;-75
2023/05/10 00:12:56;;;;;;;;;4.00;2.00;;;;;;;;6371929;22;45269;-75
2023/05/10 00:15:21;;;;;;;;;2.33;1.33;;;;;;;;6371693;22;45318;-75
2023/05/10 00:17:46;;;;;;;;;5.00;2.00;;;;;;;;6342950;22;45245;-75
2023/05/10 00:20:12;;;;;;;;;3.33;1.00;;;;;;;;6371292;22;45184;-74
2023/05/10 00:22:37;;;;;;;;;2.50;1.00;;;;;;;;6371514;22;45980;-75
2023/05/10 00:25:02;;;;;;;;;2.33;1.00;;;;;;;;6342242;22;45305;-75
2023/05/10 00:27:27;;;;;;;;;1.67;1.00;;;;;;;;6371896;22;45388;-75
2023/05/10 00:29:53;;;;;;;;;1.50;1.25;;;;;;;;6343010;22;46382;-75
2023/05/10 00:32:18;;;;;;;;;1.75;1.00;;;;;;;;6371831;22;45214;-75
2023/05/10 00:34:43;;;;;;;;;3.25;1.00;;;;;;;;6371644;22;45158;-75
2023/05/10 00:37:08;;;;;;;;;1.00;1.00;;;;;;;;6371296;22;45438;-75
2023/05/10 00:39:33;;;;;;;;;0.75;0.00;;;;;;;;6342913;22;45834;-75
2023/05/10 00:42:00;;;;;;;;;1.00;1.00;;;;;;;;6371866;22;45290;-75
2023/05/10 00:44:25;;;;;;;;;1.50;1.00;;;;;;;;6371813;22;45095;-75
2023/05/10 00:46:50;;;;;;;;;1.00;0.00;;;;;;;;6371801;22;45215;-75
2023/05/10 00:49:16;;;;;;;;;2.00;0.75;;;;;;;;6371682;22;45160;-74
2023/05/10 00:51:42;;;;;;;;;1.00;0.00;;;;;;;;6342086;22;46839;-75
2023/05/10 00:54:08;;;;;;;;;2.00;1.00;;;;;;;;6342724;22;45404;-75
2023/05/10 00:56:33;;;;;;;;;0.50;0.00;;;;;;;;6372344;22;45148;-75
2023/05/10 00:58:59;;;;;;;;;0.00;0.00;;;;;;;;6373115;22;45149;-76
2023/05/10 01:01:24;;;;;;;;;1.25;1.00;;;;;;;;6372803;22;45245;-75
2023/05/10 01:03:50;;;;;;;;;1.00;0.67;;;;;;;;6372908;22;45202;-75
2023/05/10 01:06:16;;;;;;;;;1.00;1.00;;;;;;;;6372242;22;45661;-75
2023/05/10 01:08:41;;;;;;;;;1.00;0.50;;;;;;;;6372123;22;45344;-74
2023/05/10 01:11:06;;;;;;;;;1.00;1.00;;;;;;;;6341649;22;46956;-74
2023/05/10 01:13:35;;;;;;;;;2.50;0.00;;;;;;;;6371674;22;45203;-75
2023/05/10 01:16:04;;;;;;;;;2.00;0.00;;;;;;;;6342760;22;45235;-75
2023/05/10 01:18:32;;;;;;;;;0.75;0.75;;;;;;;;6342710;22;45952;-75
2023/05/10 01:21:18;;;;;;;;;0.00;0.00;;;;;;;;6371267;22;45281;-75
2023/05/10 01:23:52;;;;;;;;;0.00;0.00;;;;;;;;6370098;22;45183;-75
2023/05/10 01:26:37;;;;;;;;;2.00;0.50;;;;;;;;6371863;22;45476;-74
2023/05/10 01:29:18;;;;;;;;;1.00;1.00;;;;;;;;6370818;22;45305;-74
2023/05/10 01:31:58;;;;;;;;;1.00;1.00;;;;;;;;6371075;22;45348;-75
2023/05/10 01:34:27;;;;;;;;;0.25;0.25;;;;;;;;6371460;22;45196;-75
2023/05/10 01:37:00;;;;;;;;;0.00;0.00;;;;;;;;6341925;22;45359;-75
2023/05/10 01:39:32;;;;;;;;;2.00;1.00;;;;;;;;6342283;22;45331;-75
2023/05/10 01:42:02;;;;;;;;;0.00;0.00;;;;;;;;6370468;22;45523;-75
2023/05/10 01:44:39;;;;;;;;;3.00;1.00;;;;;;;;6371767;22;45155;-75
2023/05/10 01:47:07;;;;;;;;;0.50;0.50;;;;;;;;6371514;22;45012;-75
2023/05/10 01:49:36;;;;;;;;;1.00;1.00;;;;;;;;6371205;22;45286;-75
2023/05/10 01:52:24;;;;;;;;;3.00;0.00;;;;;;;;6369963;22;45518;-76
2023/05/10 01:54:53;;;;;;;;;1.50;0.00;;;;;;;;6371531;22;44848;-76
2023/05/10 01:57:20;;;;;;;;;0.00;0.00;;;;;;;;6342756;22;44708;-75
2023/05/10 01:59:48;;;;;;;;;1.00;1.00;;;;;;;;6371444;22;45134;-76
2023/05/10 02:02:14;;;;;;;;;2.00;0.00;;;;;;;;6371172;22;45440;-75
2023/05/10 02:04:40;;;;;;;;;0.50;0.00;;;;;;;;6371506;22;45267;-75
2023/05/10 02:07:06;;;;;;;;;2.00;1.00;;;;;;;;6341607;22;44687;-76
2023/05/10 02:09:33;;;;;;;;;0.00;0.00;;;;;;;;6342857;22;45192;-75
2023/05/10 02:11:59;;;;;;;;;0.00;0.00;;;;;;;;6371406;22;45474;-75
2023/05/10 02:14:26;;;;;;;;;0.00;0.00;;;;;;;;6342725;22;45486;-75
2023/05/10 02:16:52;;;;;;;;;0.00;0.00;;;;;;;;6342057;22;45233;-75
2023/05/10 02:19:18;;;;;;;;;1.50;0.00;;;;;;;;6341604;22;45965;-75
2023/05/10 02:21:45;;;;;;;;;0.00;0.00;;;;;;;;6370657;22;45254;-75
2023/05/10 02:24:11;;;;;;;;;0.50;0.50;;;;;;;;6371285;22;45265;-76
2023/05/10 02:26:37;;;;;;;;;2.00;0.00;;;;;;;;6370594;22;45193;-76
2023/05/10 02:29:04;;;;;;;;;0.00;0.00;;;;;;;;6371177;22;45357;-75
2023/05/10 02:31:31;;;;;;;;;1.00;0.00;;;;;;;;6340816;22;47672;-75
2023/05/10 02:33:57;;;;;;;;;1.00;0.00;;;;;;;;6371091;22;45235;-75
2023/05/10 02:36:23;;;;;;;;;1.00;1.00;;;;;;;;6369899;22;45203;-75
2023/05/10 02:38:48;;;;;;;;;0.00;0.00;;;;;;;;6371368;22;45175;-75
2023/05/10 02:41:14;;;;;;;;;0.00;0.00;;;;;;;;6342879;22;47048;-76
2023/05/10 02:43:40;;;;;;;;;0.00;0.00;;;;;;;;6343575;22;45579;-76
2023/05/10 02:46:05;;;;;;;;;1.50;0.00;;;;;;;;6372398;22;45307;-76
2023/05/10 02:48:31;;;;;;;;;0.50;0.00;;;;;;;;6343394;22;46820;-75
2023/05/10 02:51:00;;;;;;;;;0.00;0.00;;;;;;;;6371516;22;45219;-75
2023/05/10 02:53:31;;;;;;;;;0.67;0.00;;;;;;;;6343381;22;45199;-75
2023/05/10 02:55:58;;;;;;;;;0.00;0.00;;;;;;;;6342283;22;45354;-75
2023/05/10 02:58:24;;;;;;;;;0.00;0.00;;;;;;;;6372211;22;45194;-75
2023/05/10 03:00:49;;;;;;;;;0.00;0.00;;;;;;;;6342851;22;47117;-75
2023/05/10 03:03:14;;;;;;;;;0.00;0.00;;;;;;;;6371816;22;44765;-75
2023/05/10 03:05:39;;;;;;;;;0.00;0.00;;;;;;;;6371970;22;45202;-75
2023/05/10 03:08:05;;;;;;;;;1.33;0.00;;;;;;;;6372536;22;45220;-75
2023/05/10 03:10:32;;;;;;;;;0.00;0.00;;;;;;;;6372014;22;45229;-75
2023/05/10 03:13:17;;;;;;;;;2.00;0.00;;;;;;;;6372639;22;45222;-75
2023/05/10 03:15:48;;;;;;;;;1.00;0.00;;;;;;;;6372362;22;45281;-75
2023/05/10 03:18:24;;;;;;;;;0.00;0.00;;;;;;;;6372026;22;45258;-74
2023/05/10 03:20:50;;;;;;;;;1.00;0.00;;;;;;;;6342535;22;46674;-74
2023/05/10 03:23:21;;;;;;;;;3.00;1.00;;;;;;;;6370310;22;45169;-74
2023/05/10 03:25:48;;;;;;;;;0.67;0.00;;;;;;;;6342867;22;45286;-76
2023/05/10 03:28:15;;;;;;;;;0.00;0.00;;;;;;;;6371778;22;45360;-75
2023/05/10 03:30:41;;;;;;;;;1.00;0.00;;;;;;;;6371799;22;46449;-74
2023/05/10 03:33:06;;;;;;;;;0.00;0.00;;;;;;;;6372020;22;45168;-76
2023/05/10 03:35:31;;;;;;;;;0.00;0.00;;;;;;;;6342449;22;45200;-76
2023/05/10 03:37:57;;;;;;;;;1.00;0.00;;;;;;;;6343095;22;45826;-76
2023/05/10 03:40:22;;;;;;;;;0.00;0.00;;;;;;;;6372034;22;46182;-74
2023/05/10 03:42:48;;;;;;;;;0.00;0.00;;;;;;;;6343221;22;45162;-75
2023/05/10 03:45:13;;;;;;;;;1.00;0.00;;;;;;;;6372101;22;45261;-75
2023/05/10 03:47:38;;;;;;;;;1.00;0.00;;;;;;;;6342698;22;45583;-75
2023/05/10 03:50:04;;;;;;;;;0.00;0.00;;;;;;;;6342941;22;48623;-75
2023/05/10 03:52:29;;;;;;;;;0.00;0.00;;;;;;;;6371495;22;45232;-75
2023/05/10 03:54:54;;;;;;;;;0.00;0.00;;;;;;;;6342888;22;45235;-75
2023/05/10 03:57:19;;;;;;;;;0.00;0.00;;;;;;;;6372011;22;45643;-76
2023/05/10 03:59:45;;;;;;;;;0.00;0.00;;;;;;;;6372377;22;46399;-76
2023/05/10 04:02:10;;;;;;;;;1.33;0.00;;;;;;;;6370936;22;45237;-75
2023/05/10 04:04:35;;;;;;;;;0.00;0.00;;;;;;;;6372179;22;44716;-76
2023/05/10 04:07:00;;;;;;;;;1.33;0.00;;;;;;;;6371929;22;45413;-75
2023/05/10 04:09:26;;;;;;;;;0.00;0.00;;;;;;;;6372128;22;45347;-75
2023/05/10 04:11:51;;;;;;;;;0.25;0.25;;;;;;;;6371551;22;45250;-76
2023/05/10 04:14:16;;;;;;;;;1.00;0.00;;;;;;;;6372219;22;45401;-76
2023/05/10 04:16:41;;;;;;;;;0.00;0.00;;;;;;;;6371844;22;45199;-76
2023/05/10 04:19:07;;;;;;;;;0.00;0.00;;;;;;;;6371407;22;45143;-76
2023/05/10 04:21:32;;;;;;;;;0.00;0.00;;;;;;;;6370702;22;45276;-76
2023/05/10 04:23:57;;;;;;;;;0.00;0.00;;;;;;;;6371946;22;45286;-75
2023/05/10 04:26:23;;;;;;;;;0.00;0.00;;;;;;;;6372161;22;45289;-76
2023/05/10 04:28:48;;;;;;;;;0.00;0.00;;;;;;;;6371920;22;45473;-75
2023/05/10 04:31:13;;;;;;;;;0.00;0.00;;;;;;;;6371134;22;45355;-76
2023/05/10 04:33:38;;;;;;;;;0.00;0.00;;;;;;;;6372163;22;44673;-76
2023/05/10 04:36:04;;;;;;;;;1.00;1.00;;;;;;;;6341575;22;46192;-75
2023/05/10 04:38:29;;;;;;;;;1.50;0.00;;;;;;;;6371814;22;45194;-74
2023/05/10 04:41:03;;;;;;;;;0.75;0.75;;;;;;;;6371523;22;45281;-74
2023/05/10 04:43:28;;;;;;;;;0.00;0.00;;;;;;;;6342138;22;44689;-74
2023/05/10 04:45:55;;;;;;;;;2.67;0.00;;;;;;;;6342535;22;45257;-75
2023/05/10 04:48:21;;;;;;;;;0.00;0.00;;;;;;;;6371363;22;45093;-75
2023/05/10 04:50:46;;;;;;;;;1.33;1.00;;;;;;;;6371435;22;45292;-75
2023/05/10 04:53:11;;;;;;;;;1.00;1.00;;;;;;;;6343252;22;45167;-76
2023/05/10 04:55:36;;;;;;;;;1.00;1.00;;;;;;;;6371684;22;45190;-74
2023/05/10 04:58:02;;;;;;;;;2.00;1.00;;;;;;;;6372379;22;45613;-74
2023/05/10 05:00:27;;;;;;;;;1.00;1.00;;;;;;;;6372089;22;45637;-74
2023/05/10 05:02:53;;;;;;;;;1.67;1.67;;;;;;;;6343606;22;44709;-75
2023/05/10 05:05:18;;;;;;;;;1.00;1.00;;;;;;;;6371183;22;45123;-74
2023/05/10 05:07:43;;;;;;;;;1.00;1.00;;;;;;;;6343042;22;47090;-75
2023/05/10 05:10:08;;;;;;;;;4.00;1.00;;;;;;;;6342811;22;45234;-75
2023/05/10 05:12:34;;;;;;;;;1.00;1.00;;;;;;;;6372458;22;45535;-75
2023/05/10 05:14:59;;;;;;;;;1.33;1.00;;;;;;;;6371941;22;45142;-74
2023/05/10 05:17:25;;;;;;;;;2.00;1.00;;;;;;;;6371819;22;46286;-75
2023/05/10 05:19:50;;;;;;;;;1.33;1.33;;;;;;;;6342271;22;45294;-74
2023/05/10 05:22:15;;;;;;;;;2.75;1.00;;;;;;;;6371603;22;45415;-75
2023/05/10 05:24:40;;;;;;;;;2.00;2.00;;;;;;;;6371905;22;45207;-75
2023/05/10 05:27:06;;;;;;;;;4.67;2.33;;;;;;;;6371595;22;46078;-75
2023/05/10 05:29:31;;;;;;;;;1.00;1.00;;;;;;;;6372138;22;45218;-77
2023/05/10 05:31:56;;;;;;;;;1.25;1.25;;;;;;;;6342814;22;44634;-76
2023/05/10 05:34:22;;;;;;;;;2.00;2.00;;;;;;;;6371809;22;46032;-77
2023/05/10 05:36:47;;;;;;;;;2.00;2.00;;;;;;;;6342541;22;46730;-76
2023/05/10 05:39:12;;;;;;;;;3.25;3.00;;;;;;;;6372174;22;45282;-75
2023/05/10 05:41:38;;;;;;;;;2.00;2.00;;;;;;;;6372071;22;45322;-77
2023/05/10 05:44:03;;;;;;;;;4.00;1.75;;;;;;;;6372277;22;45255;-76
2023/05/10 05:46:28;;;;;;;;;2.00;2.00;;;;;;;;6371833;22;45318;-78
2023/05/10 05:48:53;;;;;;;;;2.00;2.00;;;;;;;;6372061;22;45161;-77
2023/05/10 05:51:18;;;;;;;;;3.50;2.50;;;;;;;;6342374;22;45279;-76
2023/05/10 05:53:44;;;;;;;;;2.00;2.00;;;;;;;;6371813;22;45414;-75
2023/05/10 05:56:09;;;;;;;;;4.67;2.00;;;;;;;;6370964;22;45483;-75
2023/05/10 05:58:34;;;;;;;;;1.00;1.00;;;;;;;;6372035;22;45262;-75
2023/05/10 06:01:00;;;;;;;;;2.67;2.67;;;;;;;;6342435;22;45270;-75
2023/05/10 06:03:25;;;;;;;;;3.00;2.00;;;;;;;;6371777;22;45326;-74
2023/05/10 06:05:50;;;;;;;;;2.33;2.33;;;;;;;;6370316;22;46113;-74
2023/05/10 06:08:15;;;;;;;;;3.00;2.00;;;;;;;;6371340;22;45184;-75
2023/05/10 06:10:40;;;;;;;;;6.33;3.33;;;;;;;;6342323;22;45262;-74
2023/05/10 06:13:06;;;;;;;;;3.00;3.00;;;;;;;;6342733;22;47466;-75
2023/05/10 06:15:32;;;;;;;;;5.67;3.67;;;;;;;;6371313;22;45964;-75
2023/05/10 06:17:57;;;;;;;;;4.00;3.00;;;;;;;;6374171;22;45126;-76
2023/05/10 06:20:23;;;;;;;;;2.00;2.00;;;;;;;;6374170;22;45186;-78
2023/05/10 06:22:48;;;;;;;;;4.00;3.00;;;;;;;;6373649;22;45203;-78
2023/05/10 06:25:14;;;;;;;;;4.00;3.00;;;;;;;;6374021;22;45183;-76
2023/05/10 06:27:39;;;;;;;;;2.67;1.33;;;;;;;;6374352;22;45140;-75
2023/05/10 06:30:05;;;;;;;;;4.33;2.67;;;;;;;;6344981;22;45233;-74
2023/05/10 06:32:30;;;;;;;;;5.33;4.67;;;;;;;;6374986;22;45213;-75
2023/05/10 06:34:55;;;;;;;;;4.33;3.33;;;;;;;;6344843;22;48081;-75
2023/05/10 06:37:20;;;;;;;;;3.00;3.00;;;;;;;;6372539;22;45253;-75
2023/05/10 06:39:46;;;;;;;;;6.33;4.00;;;;;;;;6371750;22;45412;-75
2023/05/10 06:42:11;;;;;;;;;4.00;2.00;;;;;;;;6341806;22;45698;-74
2023/05/10 06:44:36;;;;;;;;;2.33;1.33;;;;;;;;6342409;22;45037;-77
2023/05/10 06:47:01;;;;;;;;;3.00;2.00;;;;;;;;6370828;22;44668;-75
2023/05/10 06:49:27;;;;;;;;;5.00;3.00;;;;;;;;6371292;22;45349;-76
2023/05/10 06:51:52;;;;;;;;;6.00;4.00;;;;;;;;6341205;22;45731;-75
2023/05/10 06:54:17;;;;;;;;;3.00;3.00;;;;;;;;6371222;22;45257;-75
2023/05/10 06:56:43;;;;;;;;;3.67;3.67;;;;;;;;6342460;22;45201;-75
2023/05/10 06:59:08;;;;;;;;;3.00;3.00;;;;;;;;6371208;22;45329;-75
2023/05/10 07:01:34;;;;;;;;;4.00;3.00;;;;;;;;6342006;22;45376;-74
2023/05/10 07:04:00;;;;;;;;;2.67;2.67;;;;;;;;6340822;22;45208;-75
2023/05/10 07:06:25;;;;;;;;;3.00;2.00;;;;;;;;6370537;22;45169;-74
2023/05/10 07:08:50;;;;;;;;;4.67;4.00;;;;;;;;6371238;22;45166;-75
2023/05/10 07:11:15;;;;;;;;;6.00;4.00;;;;;;;;6370664;22;45194;-74
2023/05/10 07:13:43;;;;;;;;;7.00;4.00;;;;;;;;6370748;22;45918;-74
2023/05/10 07:16:09;;;;;;;;;4.00;4.00;;;;;;;;6370293;22;45212;-74
2023/05/10 07:18:35;;;;;;;;;6.67;4.67;;;;;;;;6370736;22;45177;-75
2023/05/10 07:21:00;;;;;;;;;4.00;4.00;;;;;;;;6370219;22;45277;-74
2023/05/10 07:23:25;;;;;;;;;4.33;3.00;;;;;;;;6370353;22;45364;-74
2023/05/10 07:25:53;;;;;;;;;7.00;3.67;;;;;;;;6370280;22;44652;-73
2023/05/10 07:28:19;;;;;;;;;6.67;5.67;;;;;;;;6370735;22;45243;-75
2023/05/10 07:30:44;;;;;;;;;5.00;4.00;;;;;;;;6371629;22;45273;-76
2023/05/10 07:33:11;;;;;;;;;6.75;6.00;;;;;;;;6372025;22;45929;-75
2023/05/10 07:35:36;;;;;;;;;6.00;4.67;;;;;;;;6370738;22;44654;-73
2023/05/10 07:38:02;;;;;;;;;7.00;4.00;;;;;;;;6371592;22;45149;-74
2023/05/10 07:40:27;;;;;;;;;9.00;5.50;;;;;;;;6342370;22;45870;-74
2023/05/10 07:42:53;;;;;;;;;5.00;4.00;;;;;;;;6371057;22;45615;-74
2023/05/10 07:45:18;;;;;;;;;4.67;4.00;;;;;;;;6371784;22;45319;-74
2023/05/10 07:47:43;;;;;;;;;4.67;4.00;;;;;;;;6342633;22;45203;-75
2023/05/10 07:50:09;;;;;;;;;3.67;3.67;;;;;;;;6371126;22;45231;-75
2023/05/10 07:52:34;;;;;;;;;6.00;4.33;;;;;;;;6371405;22;45236;-74
2023/05/10 07:54:59;;;;;;;;;3.00;3.00;;;;;;;;6342858;22;45496;-75
2023/05/10 07:57:24;;;;;;;;;4.33;4.00;;;;;;;;6343034;22;45236;-77
2023/05/10 07:59:49;;;;;;;;;6.00;4.00;;;;;;;;6342440;22;45716;-75
2023/05/10 08:02:15;;;;;;;;;8.00;6.67;;;;;;;;6370702;22;45978;-76
2023/05/10 08:04:40;;;;;;;;;5.00;5.00;;;;;;;;6371865;22;45313;-75
2023/05/10 08:07:05;;;;;;;;;10.67;8.33;;;;;;;;6371634;22;45281;-75
2023/05/10 08:09:30;;;;;;;;;7.00;6.00;;;;;;;;6371438;22;45250;-75
2023/05/10 08:11:56;;;;;;;;;5.33;4.00;;;;;;;;6371594;22;45993;-75
2023/05/10 08:14:21;;;;;;;;;13.67;8.00;;;;;;;;6342242;22;45212;-75
2023/05/10 08:16:46;;;;;;;;;6.00;6.00;;;;;;;;6370104;22;45219;-75
2023/05/10 08:19:12;;;;;;;;;7.00;6.33;;;;;;;;6340257;22;45783;-76
2023/05/10 08:21:37;;;;;;;;;9.33;8.00;;;;;;;;6340809;22;46149;-74
2023/05/10 08:24:02;;;;;;;;;9.00;5.33;;;;;;;;6370771;22;45228;-75
2023/05/10 08:26:27;;;;;;;;;10.67;9.67;;;;;;;;6337095;22;45282;-75
2023/05/10 08:28:53;;;;;;;;;8.25;8.00;;;;;;;;6370695;22;45222;-74
2023/05/10 08:31:18;;;;;;;;;9.67;8.00;;;;;;;;6369743;22;45306;-75
2023/05/10 08:33:43;;;;;;;;;12.67;9.00;;;;;;;;6370139;22;45207;-75
2023/05/10 08:36:09;;;;;;;;;8.75;7.50;;;;;;;;6370038;22;45191;-75
2023/05/10 08:38:34;;;;;;;;;7.67;7.67;;;;;;;;6370215;22;45408;-74
2023/05/10 08:41:00;;;;;;;;;10.33;8.67;;;;;;;;6370702;22;45599;-75
2023/05/10 08:43:29;;;;;;;;;8.33;6.00;;;;;;;;6340417;22;45337;-75
2023/05/10 08:45:56;;;;;;;;;5.00;5.00;;;;;;;;6368929;22;45188;-74
2023/05/10 08:48:23;;;;;;;;;8.00;6.67;;;;;;;;6369056;22;45380;-79
2023/05/10 08:50:48;;;;;;;;;6.33;4.00;;;;;;;;6314937;22;47763;-71
2023/05/10 08:53:14;;;;;;;;;12.00;9.00;;;;;;;;6368609;22;45283;-72
2023/05/10 08:55:42;;;;;;;;;6.67;6.33;;;;;;;;6370307;22;44774;-72
2023/05/10 08:58:07;;;;;;;;;8.00;8.00;;;;;;;;6371297;22;45227;-72
2023/05/10 09:00:32;;;;;;;;;7.67;7.00;;;;;;;;6371673;22;45132;-73
2023/05/10 09:02:58;;;;;;;;;8.33;7.00;;;;;;;;6374408;22;45159;-74
2023/05/10 09:05:23;;;;;;;;;11.67;8.00;;;;;;;;6343395;22;45350;-73
2023/05/10 09:07:49;;;;;;;;;6.00;6.00;;;;;;;;6373637;22;45183;-74
2023/05/10 09:10:15;;;;;;;;;10.33;7.67;;;;;;;;6374041;22;46571;-74
2023/05/10 09:12:40;;;;;;;;;8.67;8.00;;;;;;;;6373889;22;45131;-72
2023/05/10 09:15:06;;;;;;;;;6.67;6.00;;;;;;;;6374111;22;45159;-73
2023/05/10 09:17:31;;;;;;;;;8.00;7.67;;;;;;;;6369954;22;45230;-74
2023/05/10 09:19:58;;;;;;;;;9.33;6.67;;;;;;;;6370034;22;45293;-74
2023/05/10 09:22:23;;;;;;;;;8.00;6.33;;;;;;;;6369547;22;45275;-74
2023/05/10 09:25:02;;;;;;;;;8.00;8.00;;;;;;;;6371771;22;45190;-75
2023/05/10 09:27:28;;;;;;;;;9.67;7.67;;;;;;;;6342194;22;45924;-73
2023/05/10 09:29:54;;;;;;;;;6.33;6.00;;;;;;;;6371636;22;45912;-73
2023/05/10 09:32:20;;;;;;;;;8.00;6.33;;;;;;;;6342153;22;45259;-73
2023/05/10 09:34:45;;;;;;;;;9.33;7.33;;;;;;;;6371418;22;45238;-73
2023/05/10 09:37:11;;;;;;;;;12.00;8.67;;;;;;;;6340607;22;46513;-74
2023/05/10 09:39:37;;;;;;;;;10.33;6.00;;;;;;;;6371283;22;46023;-75
2023/05/10 09:42:03;;;;;;;;;14.00;10.00;;;;;;;;6371224;22;45650;-81
2023/05/10 09:44:29;;;;;;;;;14.67;11.00;;;;;;;;6371880;22;45231;-74
2023/05/10 09:46:54;;;;;;;;;6.00;2.67;;;;;;;;6371313;22;45318;-74
2023/05/10 09:49:20;;;;;;;;;15.67;9.00;;;;;;;;6341700;22;47534;-74
2023/05/10 09:51:45;;;;;;;;;11.67;9.33;;;;;;;;6370680;22;45237;-74
2023/05/10 09:54:11;;;;;;;;;10.33;8.00;;;;;;;;6371738;22;45447;-74
2023/05/10 09:56:38;;;;;;;;;11.33;8.33;;;;;;;;6371170;22;45461;-74
2023/05/10 09:59:04;;;;;;;;;9.00;8.00;;;;;;;;6371265;22;45145;-74
2023/05/10 10:01:30;;;;;;;;;13.00;9.33;;;;;;;;6370798;22;44572;-74
2023/05/10 10:03:57;;;;;;;;;9.33;7.00;;;;;;;;6371632;22;45162;-74
2023/05/10 10:06:22;;;;;;;;;12.00;9.00;;;;;;;;6370622;22;45383;-74
2023/05/10 10:08:48;;;;;;;;;11.67;9.00;;;;;;;;6371195;22;45203;-74
2023/05/10 10:11:13;;;;;;;;;14.33;12.00;;;;;;;;6371195;22;45276;-74
2023/05/10 10:13:38;;;;;;;;;9.33;8.00;;;;;;;;6371687;22;45249;-74
2023/05/10 10:16:03;;;;;;;;;11.00;9.00;;;;;;;;6342531;22;45487;-74
2023/05/10 10:18:30;;;;;;;;;13.00;8.00;;;;;;;;6371212;22;45396;-74
2023/05/10 10:20:55;;;;;;;;;13.00;8.67;;;;;;;;6341416;22;45285;-74
2023/05/10 10:23:21;;;;;;;;;6.00;5.00;;;;;;;;6341718;22;45245;-75
2023/05/10 10:25:48;;;;;;;;;8.67;7.33;;;;;;;;6371179;22;45185;-76
2023/05/10 10:28:17;;;;;;;;;12.67;8.33;;;;;;;;6371233;22;45368;-76
2023/05/10 10:30:43;;;;;;;;;12.00;9.00;;;;;;;;6371064;22;45350;-76
2023/05/10 10:33:27;;;;;;;;;15.33;10.00;;;;;;;;6371388;22;45423;-76
2023/05/10 10:35:53;;;;;;;;;18.33;11.00;;;;;;;;6340243;22;45925;-75
2023/05/10 10:38:18;;;;;;;;;11.00;10.33;;;;;;;;6340355;22;46809;-76
2023/05/10 10:40:43;;;;;;;;;12.67;8.00;;;;;;;;6370702;22;45184;-76
2023/05/10 10:43:23;;;;;;;;;10.33;9.33;;;;;;;;6342424;22;45393;-76
2023/05/10 10:46:07;;;;;;;;;7.67;7.00;;;;;;;;6370420;22;45264;-76
2023/05/10 10:48:32;;;;;;;;;12.00;9.67;;;;;;;;6342186;22;48055;-77
2023/05/10 10:50:58;;;;;;;;;10.67;9.33;;;;;;;;6370426;22;45203;-78
2023/05/10 10:53:26;;;;;;;;;11.00;9.00;;;;;;;;6341451;22;45432;-76
2023/05/10 10:56:02;;;;;;;;;8.33;7.00;;;;;;;;6370881;22;45322;-76
2023/05/10 10:58:31;;;;;;;;;12.33;11.33;;;;;;;;6341044;22;47121;-76
2023/05/10 11:01:16;;;;;;;;;12.00;9.00;;;;;;;;6342561;22;45715;-76
2023/05/10 11:03:55;;;;;;;;;9.00;6.00;;;;;;;;6343062;22;45594;-76
2023/05/10 11:06:29;;;;;;;;;14.67;9.67;;;;;;;;6371261;22;45309;-75
2023/05/10 11:08:54;;;;;;;;;11.00;7.33;;;;;;;;6372016;22;46199;-76
2023/05/10 11:11:20;;;;;;;;;9.00;7.33;;;;;;;;6371930;22;45121;-75
2023/05/10 11:13:47;;;;;;;;;10.67;9.00;;;;;;;;6372476;22;45208;-75
2023/05/10 11:16:26;;;;;;;;;8.67;8.67;;;;;;;;6343141;22;45855;-75
2023/05/10 11:18:59;;;;;;;;;10.33;7.67;;;;;;;;6343318;22;46250;-75
2023/05/10 11:21:25;;;;;;;;;11.33;10.00;;;;;;;;6371995;22;45567;-75
2023/05/10 11:23:51;;;;;;;;;10.67;8.33;;;;;;;;6343312;22;45407;-76
2023/05/10 11:26:17;;;;;;;;;7.33;6.67;;;;;;;;6372229;22;45148;-75
2023/05/10 11:28:46;;;;;;;;;10.67;7.00;;;;;;;;6372170;22;44993;-75
2023/05/10 11:31:15;;;;;;;;;9.67;7.67;;;;;;;;6372054;22;45296;-75
2023/05/10 11:33:51;;;;;;;;;8.00;6.67;;;;;;;;6343651;22;45219;-75
2023/05/10 11:36:21;;;;;;;;;8.33;7.00;;;;;;;;6337107;22;47228;-76
2023/05/10 11:38:46;;;;;;;;;7.33;6.67;;;;;;;;6339594;22;46229;-75
2023/05/10 11:41:12;;;;;;;;;8.00;6.00;;;;;;;;6340720;22;45337;-75
2023/05/10 11:43:41;;;;;;;;;8.00;6.33;;;;;;;;6341000;22;45194;-75
2023/05/10 11:46:07;;;;;;;;;5.67;4.00;;;;;;;;6341099;22;45269;-75
2023/05/10 11:48:33;;;;;;;;;8.33;7.00;;;;;;;;6338924;22;48306;-74
2023/05/10 11:50:58;;;;;;;;;5.00;4.33;;;;;;;;6340924;22;45142;-75
2023/05/10 11:53:25;;;;;;;;;8.00;5.00;;;;;;;;6341823;22;45167;-74
2023/05/10 11:55:50;;;;;;;;;8.67;7.00;;;;;;;;6340784;22;45201;-74
2023/05/10 11:58:17;;;;;;;;;11.00;6.33;;;;;;;;6340790;22;45444;-74
2023/05/10 12:00:42;;;;;;;;;7.00;6.00;;;;;;;;6340075;22;45203;-75
2023/05/10 12:03:08;;;;;;;;;6.33;6.33;;;;;;;;6340490;22;45380;-75
2023/05/10 12:05:34;;;;;;;;;8.00;8.00;;;;;;;;6339447;22;45353;-75
2023/05/10 12:08:12;;;;;;;;;5.67;5.00;;;;;;;;6340184;22;45243;-75
2023/05/10 12:10:37;;;;;;;;;4.67;3.67;;;;;;;;6338037;22;45307;-75
2023/05/10 12:13:03;;;;;;;;;7.00;6.00;;;;;;;;6340418;22;45481;-75
2023/05/10 12:15:28;;;;;;;;;11.33;5.00;;;;;;;;6339964;22;45182;-75
2023/05/10 12:17:53;;;;;;;;;8.00;7.00;;;;;;;;6340539;22;44910;-75
2023/05/10 12:20:22;;;;;;;;;8.00;6.33;;;;;;;;6337572;22;45266;-75
2023/05/10 12:22:51;;;;;;;;;9.33;7.67;;;;;;;;6340737;22;45214;-75
2023/05/10 12:25:17;;;;;;;;;9.33;6.00;;;;;;;;6339981;22;45135;-75
2023/05/10 12:27:52;;;;;;;;;7.67;5.67;;;;;;;;6339749;22;46169;-75
2023/05/10 12:30:21;;;;;;;;;7.33;7.33;;;;;;;;6337969;22;45279;-75
2023/05/10 12:32:47;;;;;;;;;6.00;5.67;;;;;;;;6340657;22;45128;-75
2023/05/10 12:35:12;;;;;;;;;6.00;4.33;;;;;;;;6334767;22;47046;-75
2023/05/10 12:37:38;;;;;;;;;7.33;6.00;;;;;;;;6337551;22;46978;-76
2023/05/10 12:40:08;;;;;;;;;13.33;11.33;;;;;;;;6340076;22;45255;-75
2023/05/10 12:42:33;;;;;;;;;5.00;5.00;;;;;;;;6340096;22;45171;-76
2023/05/10 12:44:58;;;;;;;;;12.67;8.00;;;;;;;;6337844;22;46250;-76
2023/05/10 12:47:23;;;;;;;;;10.00;8.33;;;;;;;;6337490;22;46702;-76
2023/05/10 12:49:49;;;;;;;;;9.67;7.67;;;;;;;;6340341;22;45148;-75
2023/05/10 12:52:14;;;;;;;;;7.00;7.00;;;;;;;;6339628;22;45194;-75
2023/05/10 12:54:39;;;;;;;;;5.33;5.33;;;;;;;;6338039;22;46426;-75
2023/05/10 12:57:04;;;;;;;;;10.00;8.33;;;;;;;;6339605;22;45993;-75
2023/05/10 12:59:29;;;;;;;;;9.00;6.00;;;;;;;;6340007;22;45212;-75
2023/05/10 13:01:56;;;;;;;;;6.67;5.67;;;;;;;;6339570;22;45173;-74
2023/05/10 13:04:22;;;;;;;;;5.67;5.00;;;;;;;;6339329;22;45272;-74
2023/05/10 13:06:47;;;;;;;;;7.33;7.00;;;;;;;;6339790;22;45250;-75
2023/05/10 13:09:12;;;;;;;;;9.67;7.00;;;;;;;;6340172;22;45195;-75
2023/05/10 13:11:37;;;;;;;;;7.00;5.33;;;;;;;;6339853;22;45246;-75
2023/05/10 13:14:03;;;;;;;;;7.67;5.00;;;;;;;;6340288;22;45319;-75
2023/05/10 13:16:28;;;;;;;;;8.67;5.00;;;;;;;;6337801;22;46187;-75
2023/05/10 13:18:53;;;;;;;;;7.00;5.00;;;;;;;;6340334;22;45182;-75
2023/05/10 13:21:18;;;;;;;;;6.67;5.33;;;;;;;;6339793;22;45328;-75
2023/05/10 13:23:44;;;;;;;;;7.67;4.33;;;;;;;;6339066;22;45253;-74
2023/05/10 13:26:09;;;;;;;;;5.67;4.67;;;;;;;;6339756;22;45223;-75
2023/05/10 13:28:34;;;;;;;;;9.67;6.67;;;;;;;;6339869;22;45225;-74
2023/05/10 13:31:00;;;;;;;;;14.33;11.00;;;;;;;;6338090;22;45211;-74
2023/05/10 13:33:25;;;;;;;;;5.33;5.33;;;;;;;;6338108;22;45756;-75
2023/05/10 13:35:50;;;;;;;;;8.33;7.33;;;;;;;;6341009;22;46936;-75
2023/05/10 13:38:15;;;;;;;;;6.67;4.67;;;;;;;;6371340;22;45289;-75
2023/05/10 13:40:40;;;;;;;;;9.00;6.33;;;;;;;;6372101;22;45293;-75
2023/05/10 13:43:06;;;;;;;;;8.33;6.00;;;;;;;;6371861;22;45284;-75
2023/05/10 13:45:31;;;;;;;;;6.33;5.67;;;;;;;;6371437;22;45114;-75
2023/05/10 13:47:57;;;;;;;;;8.67;8.00;;;;;;;;6343133;22;45266;-75
2023/05/10 13:50:22;;;;;;;;;3.33;3.33;;;;;;;;6371796;22;45152;-75
2023/05/10 13:52:47;;;;;;;;;13.33;10.33;;;;;;;;6342254;22;45739;-75
2023/05/10 13:55:13;;;;;;;;;4.67;4.67;;;;;;;;6371544;22;45114;-74
2023/05/10 13:57:38;;;;;;;;;8.67;4.33;;;;;;;;6371506;22;44631;-75
2023/05/10 14:00:04;;;;;;;;;6.67;3.33;;;;;;;;6371834;22;45098;-74
2023/05/10 14:02:29;;;;;;;;;4.00;4.00;;;;;;;;6371844;22;45194;-75
2023/05/10 14:04:55;;;;;;;;;5.33;5.33;;;;;;;;6342200;22;47952;-75
2023/05/10 14:07:20;;;;;;;;;2.00;2.00;;;;;;;;6341815;22;45480;-75
2023/05/10 14:09:45;;;;;;;;;4.00;2.00;;;;;;;;6342430;22;45210;-75
2023/05/10 14:12:11;;;;;;;;;2.00;2.00;;;;;;;;6371525;22;45186;-75
2023/05/10 14:14:36;;;;;;;;;3.33;2.33;;;;;;;;6343150;22;47184;-74
2023/05/10 14:17:01;;;;;;;;;2.67;1.67;;;;;;;;6371807;22;45469;-74
2023/05/10 14:19:27;;;;;;;;;2.67;2.00;;;;;;;;6372353;22;45248;-74
2023/05/10 14:21:52;;;;;;;;;4.00;2.67;;;;;;;;6371528;22;45291;-74
2023/05/10 14:24:18;;;;;;;;;7.50;3.50;;;;;;;;6372256;22;46117;-74
2023/05/10 14:26:43;;;;;;;;;2.50;2.50;;;;;;;;6372181;22;45273;-74
2023/05/10 14:29:08;;;;;;;;;2.25;2.25;;;;;;;;6343373;22;45381;-75
2023/05/10 14:31:33;;;;;;;;;5.00;4.00;;;;;;;;6372301;22;45409;-75
2023/05/10 14:33:59;;;;;;;;;4.50;2.00;;;;;;;;6372676;22;46014;-75
2023/05/10 14:36:24;;;;;;;;;2.75;2.75;;;;;;;;6371585;22;45214;-75